Time;durP1;ratioP1;P1;durP2;ratioP2;P2;SDS_P1;SDS_P2;PMS_P1;PMS_P2;Temp;Humidity;BMP_temperature;BMP_pressure;BME280_temperature;BME280_humidity;BME280_pressure;Samples;Min_cycle;Max_cycle;Signal;HPM_P1;HPM_P2
2023/10/22 00:02:35;;;;;;;3.22;0.75;;;;;;;12.33;54.39;98627.78;10280532;28;20047;-58
2023/10/22 00:07:38;;;;;;;1.52;0.70;;;;;;;12.34;54.09;98625.00;10270346;28;20050;-57
2023/10/22 00:12:40;;;;;;;1.40;0.80;;;;;;;12.26;54.63;98634.47;10296336;28;20509;-58
2023/10/22 00:17:42;;;;;;;1.00;0.63;;;;;;;12.28;54.26;98641.28;10274026;28;20069;-58
2023/10/22 00:22:44;;;;;;;1.20;0.77;;;;;;;12.26;54.39;98645.78;10297464;28;20056;-58
2023/10/22 00:27:46;;;;;;;1.45;0.60;;;;;;;12.16;55.04;98655.41;10296465;28;20046;-58
2023/10/22 00:32:48;;;;;;;1.77;1.02;;;;;;;12.17;54.57;98651.84;10292770;28;20053;-58
2023/10/22 00:37:50;;;;;;;3.00;0.60;;;;;;;12.21;54.79;98653.22;10277625;28;20111;-58
2023/10/22 00:42:54;;;;;;;1.25;0.60;;;;;;;12.13;54.66;98639.94;10277473;28;20068;-58
2023/10/22 00:47:56;;;;;;;1.45;0.80;;;;;;;12.12;54.78;98644.38;10264077;28;20049;-58
2023/10/22 00:52:59;;;;;;;1.60;1.08;;;;;;;12.17;54.80;98654.47;10295191;28;20062;-58
2023/10/22 00:58:02;;;;;;;1.40;0.75;;;;;;;12.14;54.86;98649.47;10343270;28;20536;-58
2023/10/22 01:03:05;;;;;;;2.35;1.10;;;;;;;12.08;54.86;98658.69;10276115;28;20501;-57
2023/10/22 01:08:09;;;;;;;4.93;1.65;;;;;;;12.05;54.86;98658.09;10294140;28;20054;-57
2023/10/22 01:13:14;;;;;;;2.53;0.77;;;;;;;11.98;55.03;98660.44;10309891;28;20588;-57
2023/10/22 01:18:17;;;;;;;1.15;0.77;;;;;;;11.98;55.10;98654.38;10277233;28;20062;-57
2023/10/22 01:23:20;;;;;;;2.22;0.70;;;;;;;11.89;55.33;98660.38;10274362;28;20506;-58
2023/10/22 01:28:22;;;;;;;3.47;1.05;;;;;;;11.88;55.51;98663.97;10328855;28;20043;-58
2023/10/22 01:33:25;;;;;;;3.17;0.90;;;;;;;11.88;55.49;98669.22;10273748;28;20038;-58
2023/10/22 01:38:27;;;;;;;2.17;0.85;;;;;;;11.85;55.62;98666.84;10292293;28;20054;-60
2023/10/22 01:43:29;;;;;;;2.08;0.95;;;;;;;11.82;55.85;98677.59;10292928;28;20312;-60
2023/10/22 01:48:31;;;;;;;0.90;0.70;;;;;;;11.76;56.03;98678.94;10274853;28;20494;-60
2023/10/22 01:53:36;;;;;;;1.70;0.77;;;;;;;11.74;56.05;98673.00;10260426;28;20513;-60
2023/10/22 01:58:38;;;;;;;1.77;0.95;;;;;;;11.75;56.25;98676.44;10293588;28;20290;-60
2023/10/22 02:03:45;;;;;;;1.63;0.75;;;;;;;11.68;56.28;98681.34;10282225;28;20049;-60
2023/10/22 02:08:47;;;;;;;1.83;0.90;;;;;;;11.67;56.36;98679.72;10304575;28;20121;-60
2023/10/22 02:13:49;;;;;;;4.05;0.70;;;;;;;11.68;56.46;98689.22;10306542;28;20897;-60
2023/10/22 02:18:51;;;;;;;1.60;0.70;;;;;;;11.64;56.81;98671.28;10290313;28;20042;-60
2023/10/22 02:23:53;;;;;;;1.00;0.73;;;;;;;11.63;56.69;98682.72;10307168;28;20043;-60
2023/10/22 02:28:55;;;;;;;2.58;1.10;;;;;;;11.59;57.26;98683.91;10337789;28;20050;-59
2023/10/22 02:34:05;;;;;;;3.65;0.98;;;;;;;11.77;56.49;98690.22;10286897;28;20483;-60
2023/10/22 02:39:08;;;;;;;3.77;1.00;;;;;;;11.79;56.70;98688.31;10303877;28;20053;-60
2023/10/22 02:44:10;;;;;;;3.53;0.82;;;;;;;11.78;56.74;98689.28;10304438;28;20490;-60
2023/10/22 02:49:12;;;;;;;1.27;0.63;;;;;;;11.83;56.52;98695.78;10303098;28;20403;-60
2023/10/22 02:54:14;;;;;;;3.22;0.90;;;;;;;11.86;56.60;98694.72;10371502;28;20050;-60
2023/10/22 02:59:17;;;;;;;6.05;1.20;;;;;;;11.92;56.74;98702.06;10304193;28;20053;-60
2023/10/22 03:04:19;;;;;;;3.05;0.82;;;;;;;11.86;56.57;98707.81;10281178;28;20402;-60
2023/10/22 03:09:21;;;;;;;2.25;1.00;;;;;;;11.91;56.63;98709.06;10279243;28;20034;-60
2023/10/22 03:14:22;;;;;;;2.75;0.70;;;;;;;12.03;56.49;98715.06;10296299;28;20046;-59
2023/10/22 03:19:24;;;;;;;1.95;1.08;;;;;;;12.16;56.34;98723.56;10298860;28;20470;-60
2023/10/22 03:24:27;;;;;;;5.43;0.90;;;;;;;12.23;56.34;98718.63;10296665;28;20181;-60
2023/10/22 03:29:29;;;;;;;1.42;0.95;;;;;;;12.27;56.20;98722.63;10279439;28;20044;-60
2023/10/22 03:34:30;;;;;;;5.10;1.00;;;;;;;12.38;56.37;98726.03;10281104;28;20054;-60
2023/10/22 03:39:33;;;;;;;1.65;0.80;;;;;;;12.36;56.59;98716.63;10277945;28;20525;-60
2023/10/22 03:44:35;;;;;;;2.85;0.68;;;;;;;12.30;56.44;98731.09;10280498;28;20050;-60
2023/10/22 03:49:37;;;;;;;4.28;1.08;;;;;;;12.40;56.42;98731.13;10293839;28;20047;-59
2023/10/22 03:54:39;;;;;;;3.30;1.13;;;;;;;12.44;56.16;98743.84;10280038;28;20046;-60
2023/10/22 03:59:41;;;;;;;2.05;1.25;;;;;;;12.48;55.80;98747.88;10296543;28;20049;-60
2023/10/22 04:04:43;;;;;;;3.10;0.95;;;;;;;12.47;56.23;98751.47;10297735;28;20133;-59
2023/10/22 04:09:45;;;;;;;2.72;1.20;;;;;;;12.47;56.13;98754.09;10299660;28;20047;-61
2023/10/22 04:14:49;;;;;;;4.07;1.30;;;;;;;12.46;56.28;98764.69;10296644;28;20050;-61
2023/10/22 04:19:51;;;;;;;2.10;0.90;;;;;;;12.60;56.10;98782.72;10278311;28;20137;-60
2023/10/22 04:24:53;;;;;;;1.38;0.88;;;;;;;12.62;56.24;98786.03;10296093;28;20050;-60
2023/10/22 04:29:55;;;;;;;0.93;0.63;;;;;;;12.66;56.17;98796.13;10294022;28;20694;-60
2023/10/22 04:34:57;;;;;;;3.80;1.38;;;;;;;12.68;56.00;98796.00;10296049;28;20509;-60
2023/10/22 04:39:59;;;;;;;1.65;0.90;;;;;;;12.66;56.24;98805.81;10296532;28;20414;-59
2023/10/22 04:45:01;;;;;;;2.53;0.82;;;;;;;12.62;56.38;98809.66;10296145;28;20123;-60
2023/10/22 04:50:05;;;;;;;1.48;0.77;;;;;;;12.68;56.26;98803.88;10294723;28;20587;-59
2023/10/22 04:55:08;;;;;;;2.22;0.80;;;;;;;12.59;56.43;98805.50;10219000;28;20054;-60
2023/10/22 05:00:11;;;;;;;1.95;0.70;;;;;;;12.63;56.43;98808.66;10210277;28;20145;-60
2023/10/22 05:05:13;;;;;;;2.47;1.10;;;;;;;12.65;56.43;98804.97;10213206;28;20173;-60
2023/10/22 05:10:16;;;;;;;1.30;0.90;;;;;;;12.61;56.61;98813.22;10210428;28;20070;-60
2023/10/22 05:15:18;;;;;;;1.52;0.85;;;;;;;12.58;56.67;98816.94;10210062;28;20456;-60
2023/10/22 05:20:21;;;;;;;2.17;1.17;;;;;;;12.52;57.00;98824.47;10201551;28;20407;-60
2023/10/22 05:25:23;;;;;;;2.88;0.80;;;;;;;12.51;57.21;98831.53;10213298;28;20048;-60
2023/10/22 05:30:25;;;;;;;2.63;1.15;;;;;;;12.40;58.19;98838.63;10208999;28;20051;-60
2023/10/22 05:35:27;;;;;;;7.30;1.50;;;;;;;12.46;57.74;98841.56;10212455;28;20051;-60
2023/10/22 05:40:36;;;;;;;2.30;0.80;;;;;;;12.48;58.15;98839.66;10214412;28;20381;-60
2023/10/22 05:45:38;;;;;;;3.40;0.95;;;;;;;12.50;58.29;98857.88;10218233;28;20051;-60
2023/10/22 05:50:40;;;;;;;0.68;0.63;;;;;;;12.49;58.67;98857.06;10217418;28;20046;-60
2023/10/22 05:55:42;;;;;;;1.65;0.93;;;;;;;12.44;58.93;98882.81;10289748;28;20138;-60
2023/10/22 06:00:48;;;;;;;1.48;0.70;;;;;;;12.42;59.12;98883.91;10299964;28;20047;-60
2023/10/22 06:05:50;;;;;;;1.80;1.02;;;;;;;12.48;59.14;98886.84;10297519;28;20050;-60
2023/10/22 06:10:52;;;;;;;0.60;0.60;;;;;;;12.49;58.99;98891.16;10298665;28;20078;-61
2023/10/22 06:15:56;;;;;;;2.70;0.80;;;;;;;12.47;59.24;98900.94;10297988;28;20050;-60
2023/10/22 06:20:58;;;;;;;1.13;0.80;;;;;;;12.50;59.07;98907.69;10312514;28;20133;-60
2023/10/22 06:26:00;;;;;;;1.83;0.70;;;;;;;12.52;58.96;98913.66;10302762;28;20799;-60
2023/10/22 06:31:07;;;;;;;0.63;0.55;;;;;;;12.52;59.08;98916.28;10299015;28;20049;-60
2023/10/22 06:36:18;;;;;;;2.88;1.10;;;;;;;12.50;58.79;98929.50;10257378;28;20048;-60
2023/10/22 06:41:22;;;;;;;2.25;0.70;;;;;;;12.69;58.71;98934.91;10301069;28;20513;-60
2023/10/22 06:46:24;;;;;;;1.92;0.95;;;;;;;12.77;58.68;98953.44;10296882;28;20050;-60
2023/10/22 06:51:25;;;;;;;2.72;0.90;;;;;;;12.68;59.08;98959.47;10279924;28;20043;-60
2023/10/22 06:56:28;;;;;;;1.58;0.82;;;;;;;12.73;58.87;98952.03;10297964;28;20061;-60
2023/10/22 07:01:30;;;;;;;1.58;0.77;;;;;;;12.79;58.40;98971.69;10299251;28;20084;-60
2023/10/22 07:06:32;;;;;;;0.70;0.70;;;;;;;12.89;58.63;98989.16;10297116;28;20122;-60
2023/10/22 07:11:35;;;;;;;2.85;1.10;;;;;;;12.88;58.47;98984.84;10297542;28;20061;-60
2023/10/22 07:16:37;;;;;;;0.60;0.60;;;;;;;12.81;58.78;98985.50;10300334;28;20494;-60
2023/10/22 07:21:39;;;;;;;1.38;0.80;;;;;;;12.92;58.54;98991.50;10296367;28;20034;-60
2023/10/22 07:26:41;;;;;;;2.10;0.77;;;;;;;13.03;58.37;98987.97;10297143;28;20513;-60
2023/10/22 07:31:46;;;;;;;4.22;0.60;;;;;;;13.08;58.24;98991.06;10298586;28;20402;-60
2023/10/22 07:36:48;;;;;;;0.75;0.60;;;;;;;12.98;58.37;99001.47;10299224;28;20070;-60
2023/10/22 07:41:50;;;;;;;0.65;0.60;;;;;;;13.03;58.51;99010.78;10297861;28;20465;-60
2023/10/22 07:46:52;;;;;;;0.75;0.70;;;;;;;13.18;58.13;99010.31;10297628;28;20526;-60
2023/10/22 07:51:54;;;;;;;0.60;0.60;;;;;;;13.35;57.77;99011.50;10296559;28;20418;-61
2023/10/22 07:56:57;;;;;;;1.08;0.80;;;;;;;13.48;57.65;99020.03;10297479;28;20391;-60
2023/10/22 08:01:59;;;;;;;2.10;1.20;;;;;;;13.52;57.36;99022.25;10298464;28;20039;-60
2023/10/22 08:07:01;;;;;;;2.88;0.88;;;;;;;13.57;57.22;99029.75;10280412;28;20966;-60
2023/10/22 08:12:03;;;;;;;0.75;0.65;;;;;;;13.65;57.20;99029.91;10281703;28;20042;-60
2023/10/22 08:17:07;;;;;;;0.63;0.50;;;;;;;13.75;57.17;99036.03;10281783;28;20050;-60
2023/10/22 08:22:09;;;;;;;0.50;0.50;;;;;;;13.72;57.05;99039.75;10278717;28;20455;-60
2023/10/22 08:27:11;;;;;;;1.38;0.60;;;;;;;13.75;56.91;99038.66;10281782;28;20058;-60
2023/10/22 08:32:13;;;;;;;0.95;0.80;;;;;;;13.74;57.04;99052.75;10294569;28;20130;-60
2023/10/22 08:37:16;;;;;;;0.45;0.40;;;;;;;13.79;57.10;99061.09;10270254;28;20410;-60
2023/10/22 08:42:23;;;;;;;1.50;0.50;;;;;;;13.82;57.14;99076.56;10296773;28;20433;-60
2023/10/22 08:47:25;;;;;;;0.90;0.60;;;;;;;13.88;57.13;99078.66;10296995;28;20042;-61
2023/10/22 08:52:27;;;;;;;1.08;0.65;;;;;;;13.85;57.11;99084.22;10297910;28;20435;-61
2023/10/22 08:57:30;;;;;;;1.17;0.60;;;;;;;13.75;57.15;99097.31;10298008;28;20065;-61
2023/10/22 09:02:31;;;;;;;0.68;0.68;;;;;;;13.85;56.98;99099.97;10275723;28;20398;-61
2023/10/22 09:07:55;;;;;;;1.02;0.80;;;;;;;13.93;57.21;99096.69;10294609;28;20039;-61
2023/10/22 09:13:09;;;;;;;1.92;0.90;;;;;;;14.02;57.16;99107.25;10305788;28;20038;-61
2023/10/22 09:18:12;;;;;;;2.47;1.50;;;;;;;14.10;57.00;99102.16;10303164;28;20046;-61
2023/10/22 09:23:22;;;;;;;1.30;0.95;;;;;;;14.15;57.28;99112.25;10297053;28;20042;-61
2023/10/22 09:28:26;;;;;;;0.80;0.80;;;;;;;14.12;57.27;99109.91;10300871;28;20149;-61
2023/10/22 09:33:39;;;;;;;1.08;0.80;;;;;;;14.50;56.52;99112.66;10293094;28;20435;-61
2023/10/22 09:38:46;;;;;;;1.35;1.10;;;;;;;14.97;55.68;99113.66;10301128;28;20058;-61
2023/10/22 09:43:52;;;;;;;0.57;0.57;;;;;;;15.00;55.26;99116.03;10299324;28;20039;-61
2023/10/22 09:48:58;;;;;;;1.55;1.05;;;;;;;14.92;55.47;99129.88;10287164;28;20042;-61
2023/10/22 09:54:05;;;;;;;2.53;1.23;;;;;;;14.83;55.95;99137.78;10277518;28;20511;-61
2023/10/22 09:59:11;;;;;;;2.00;1.20;;;;;;;14.80;55.69;99140.69;10303459;28;20518;-61
2023/10/22 10:04:13;;;;;;;1.55;1.00;;;;;;;14.71;55.91;99144.97;10278766;28;20080;-61
2023/10/22 10:09:16;;;;;;;3.35;0.80;;;;;;;14.56;56.46;99151.56;10280552;28;20119;-62
2023/10/22 10:14:37;;;;;;;0.73;0.50;;;;;;;14.57;56.10;99146.16;10299406;28;20046;-61
2023/10/22 10:19:39;;;;;;;;;;;;;;;14.55;56.13;99155.19;10299502;28;20043;-61
2023/10/22 10:24:41;;;;;;;0.43;0.43;;;;;;;14.80;55.74;99159.13;10298166;28;19926;-61
2023/10/22 10:30:20;;;;;;;1.35;0.95;;;;;;;14.70;55.82;99171.41;10295024;28;20487;-62
2023/10/22 10:35:24;;;;;;;1.08;0.50;;;;;;;14.69;55.94;99170.59;10297772;28;20143;-61
2023/10/22 10:40:45;;;;;;;1.02;0.75;;;;;;;14.76;55.48;99174.31;10292899;28;20050;-61
2023/10/22 10:46:22;;;;;;;0.93;0.60;;;;;;;14.81;55.26;99181.81;10297601;28;20050;-61
2023/10/22 10:51:25;;;;;;;0.80;0.50;;;;;;;14.91;55.58;99175.59;10252509;28;20054;-61
2023/10/22 10:56:50;;;;;;;1.05;0.70;;;;;;;14.85;55.21;99177.94;10297715;28;20623;-61
2023/10/22 11:01:57;;;;;;;0.60;0.60;;;;;;;15.02;54.72;99166.75;10295289;28;20057;-60
2023/10/22 11:06:59;;;;;;;1.25;0.47;;;;;;;15.25;54.82;99186.56;10298310;28;20043;-61
2023/10/22 11:12:24;;;;;;;0.75;0.50;;;;;;;15.31;54.47;99175.47;10294130;28;20523;-61
2023/10/22 11:17:27;;;;;;;0.50;0.32;;;;;;;15.51;54.17;99181.59;10295217;28;20151;-61
2023/10/22 11:22:29;;;;;;;1.00;0.40;;;;;;;15.91;53.39;99183.03;10295817;28;20046;-61
2023/10/22 11:27:32;;;;;;;0.98;0.50;;;;;;;16.06;53.19;99183.41;10293989;28;20376;-61
2023/10/22 11:32:38;;;;;;;2.20;0.68;;;;;;;16.15;52.79;99193.94;10294402;28;20127;-61
2023/10/22 11:37:41;;;;;;;0.63;0.43;;;;;;;16.19;52.93;99190.03;10294551;28;20038;-61
2023/10/22 11:42:43;;;;;;;0.45;0.40;;;;;;;16.09;52.95;99198.94;10299035;28;20047;-61
2023/10/22 11:47:45;;;;;;;1.30;0.60;;;;;;;15.96;52.74;99193.13;10295226;28;20065;-61
2023/10/22 11:52:49;;;;;;;0.75;0.65;;;;;;;16.11;52.42;99197.00;10292818;28;20380;-61
2023/10/22 11:57:51;;;;;;;0.73;0.60;;;;;;;16.16;52.36;99198.22;10296273;28;20050;-61
2023/10/22 12:02:54;;;;;;;2.30;1.10;;;;;;;16.08;52.39;99203.38;10271499;28;20266;-60
2023/10/22 12:07:56;;;;;;;1.48;0.88;;;;;;;15.99;52.67;99200.78;10295287;28;20047;-60
2023/10/22 12:12:58;;;;;;;2.40;1.20;;;;;;;15.88;52.83;99209.69;10269013;28;20519;-61
2023/10/22 12:18:00;;;;;;;2.40;1.20;;;;;;;16.07;52.71;99217.56;10293746;28;20402;-61
2023/10/22 12:23:02;;;;;;;0.95;0.70;;;;;;;15.94;52.64;99222.28;10295442;28;20054;-61
2023/10/22 12:28:04;;;;;;;2.30;0.70;;;;;;;16.05;52.42;99235.34;10291693;28;20498;-61
2023/10/22 12:33:08;;;;;;;0.50;0.50;;;;;;;16.12;52.30;99235.59;10266175;28;20057;-61
2023/10/22 12:38:11;;;;;;;1.10;0.65;;;;;;;16.19;52.14;99234.03;10293820;28;20047;-60
2023/10/22 12:43:13;;;;;;;1.70;0.80;;;;;;;16.08;52.28;99245.59;10292225;28;20043;-61
2023/10/22 12:48:15;;;;;;;1.50;0.90;;;;;;;16.01;52.43;99247.13;10290717;28;20038;-61
2023/10/22 12:53:17;;;;;;;1.13;0.50;;;;;;;15.96;52.46;99262.53;10296434;28;20249;-61
2023/10/22 12:58:20;;;;;;;1.13;0.70;;;;;;;15.58;52.60;99261.75;10289272;28;20143;-61
2023/10/22 13:03:22;;;;;;;3.22;0.98;;;;;;;15.55;52.96;99254.13;10273387;28;20381;-61
2023/10/22 13:08:25;;;;;;;0.82;0.60;;;;;;;15.65;53.00;99263.72;10293543;28;20399;-60
2023/10/22 13:13:27;;;;;;;1.38;0.85;;;;;;;15.72;53.03;99270.06;10271247;28;20058;-61
2023/10/22 13:18:29;;;;;;;0.80;0.40;;;;;;;15.61;53.16;99291.31;10269234;28;20430;-61
2023/10/22 13:23:31;;;;;;;1.42;0.77;;;;;;;15.61;53.73;99282.56;10292151;28;20047;-61
2023/10/22 13:28:33;;;;;;;0.50;0.50;;;;;;;15.50;53.96;99285.34;10290788;28;20408;-61
2023/10/22 13:33:38;;;;;;;1.92;0.80;;;;;;;15.58;54.47;99288.94;10291806;28;20053;-61
2023/10/22 13:38:39;;;;;;;0.98;0.60;;;;;;;15.50;54.67;99290.59;10291551;28;20046;-60
2023/10/22 13:43:41;;;;;;;1.95;0.73;;;;;;;15.52;54.93;99293.94;10290704;28;20884;-61
2023/10/22 13:48:43;;;;;;;1.38;0.68;;;;;;;15.21;55.26;99296.66;10275345;28;20527;-61
2023/10/22 13:53:46;;;;;;;1.17;0.60;;;;;;;15.23;55.28;99286.81;10274966;28;20059;-61
2023/10/22 13:58:47;;;;;;;1.35;0.90;;;;;;;15.30;55.18;99301.13;10289334;28;20054;-60
2023/10/22 14:03:50;;;;;;;1.20;0.60;;;;;;;15.38;54.90;99297.78;10309768;28;20077;-61
2023/10/22 14:08:53;;;;;;;2.58;0.77;;;;;;;15.34;55.08;99302.50;10294624;28;20591;-61
2023/10/22 14:13:58;;;;;;;0.40;0.40;;;;;;;15.36;55.13;99299.72;10278001;28;20057;-61
2023/10/22 14:19:00;;;;;;;0.90;0.73;;;;;;;15.40;54.75;99307.22;10295137;28;20494;-61
2023/10/22 14:24:02;;;;;;;3.00;0.70;;;;;;;15.51;54.68;99310.72;10279739;28;20046;-60
2023/10/22 14:29:04;;;;;;;1.08;0.65;;;;;;;15.39;55.24;99312.59;10298327;28;20043;-61
2023/10/22 14:34:06;;;;;;;2.88;0.90;;;;;;;15.30;55.62;99321.34;10296544;28;20498;-61
2023/10/22 14:39:25;;;;;;;0.93;0.73;;;;;;;15.26;55.55;99322.59;10299927;28;20058;-60
2023/10/22 14:44:27;;;;;;;5.15;1.27;;;;;;;15.16;55.62;99313.84;10300922;28;20297;-61
2023/10/22 14:49:29;;;;;;;0.88;0.65;;;;;;;15.03;55.80;99326.41;10298904;28;20506;-60
2023/10/22 14:54:31;;;;;;;1.55;0.65;;;;;;;15.10;55.55;99328.34;10274562;28;20057;-61
2023/10/22 14:59:34;;;;;;;1.00;0.70;;;;;;;15.08;55.77;99329.47;10297594;28;20057;-60
2023/10/22 15:04:36;;;;;;;2.60;0.82;;;;;;;15.01;55.58;99337.06;10296169;28;20050;-61
2023/10/22 15:09:39;;;;;;;2.25;0.70;;;;;;;15.02;55.79;99330.03;10297875;28;20132;-60
2023/10/22 15:14:43;;;;;;;2.45;0.60;;;;;;;14.92;55.51;99334.44;10290352;28;20088;-61
2023/10/22 15:19:46;;;;;;;1.38;0.70;;;;;;;14.87;55.75;99339.25;10296669;28;20179;-61
2023/10/22 15:24:48;;;;;;;3.10;0.90;;;;;;;14.73;55.72;99350.13;10278848;28;20180;-61
2023/10/22 15:29:50;;;;;;;1.77;0.90;;;;;;;14.70;55.86;99347.75;10294080;28;20042;-60
2023/10/22 15:34:52;;;;;;;1.67;0.80;;;;;;;14.66;56.03;99352.44;10293967;28;20108;-61
2023/10/22 15:39:54;;;;;;;1.20;0.70;;;;;;;14.54;56.22;99354.34;10296807;28;20277;-61
2023/10/22 15:44:56;;;;;;;1.70;0.80;;;;;;;14.50;55.90;99370.50;10293635;28;20060;-61
2023/10/22 15:49:59;;;;;;;1.02;0.60;;;;;;;14.49;56.10;99374.94;10307100;28;20054;-61
2023/10/22 15:55:02;;;;;;;0.82;0.47;;;;;;;14.58;56.08;99382.06;10293253;28;20133;-61
2023/10/22 16:00:05;;;;;;;0.93;0.55;;;;;;;14.48;56.35;99385.56;10273946;28;20816;-60
2023/10/22 16:05:10;;;;;;;0.73;0.52;;;;;;;14.51;56.17;99385.34;10293144;28;20133;-61
2023/10/22 16:10:13;;;;;;;0.70;0.70;;;;;;;14.42;56.61;99389.53;10278024;28;20046;-60
2023/10/22 16:15:17;;;;;;;0.65;0.65;;;;;;;14.40;56.60;99394.09;10292029;28;20034;-60
2023/10/22 16:20:19;;;;;;;0.80;0.60;;;;;;;14.29;56.70;99386.25;10259128;28;20047;-61
2023/10/22 16:25:21;;;;;;;1.02;0.80;;;;;;;14.25;56.99;99395.38;10287798;28;20044;-60
2023/10/22 16:30:23;;;;;;;2.38;1.27;;;;;;;14.28;56.99;99404.81;10275275;28;20362;-61
2023/10/22 16:35:25;;;;;;;3.33;1.50;;;;;;;14.20;57.20;99410.72;10288620;28;20073;-61
2023/10/22 16:40:27;;;;;;;4.93;2.50;;;;;;;14.18;57.26;99415.28;10292508;28;20054;-61
2023/10/22 16:45:29;;;;;;;2.70;1.75;;;;;;;14.03;57.10;99415.66;10285740;28;20152;-61
2023/10/22 16:50:32;;;;;;;4.03;2.28;;;;;;;13.83;57.53;99419.94;10289186;28;20593;-61
2023/10/22 16:55:34;;;;;;;6.10;2.83;;;;;;;13.75;57.62;99438.13;10274777;28;20051;-59
2023/10/22 17:00:36;;;;;;;4.40;2.28;;;;;;;13.59;57.99;99430.66;10287589;28;20137;-60
2023/10/22 17:05:39;;;;;;;1.15;0.85;;;;;;;13.37;58.63;99440.31;10291047;28;20066;-60
2023/10/22 17:10:40;;;;;;;0.65;0.65;;;;;;;13.35;58.53;99442.22;10289902;28;20698;-59
2023/10/22 17:15:42;;;;;;;1.00;0.75;;;;;;;13.34;58.62;99451.03;10292635;28;20394;-59
2023/10/22 17:20:45;;;;;;;0.60;0.60;;;;;;;13.28;59.06;99452.38;10290979;28;20430;-59
2023/10/22 17:25:48;;;;;;;0.60;0.60;;;;;;;13.28;58.86;99462.88;10293577;28;20485;-59
2023/10/22 17:30:51;;;;;;;1.13;0.77;;;;;;;13.25;59.32;99470.97;10293208;28;20541;-59
2023/10/22 17:35:55;;;;;;;1.17;0.70;;;;;;;13.34;59.10;99475.53;10297356;28;20042;-59
2023/10/22 17:40:58;;;;;;;0.50;0.50;;;;;;;13.34;58.93;99483.41;10277152;28;20051;-59
2023/10/22 17:46:00;;;;;;;1.65;0.90;;;;;;;13.42;58.89;99488.06;10297976;28;20521;-59
2023/10/22 17:51:03;;;;;;;3.65;1.38;;;;;;;13.38;59.13;99492.72;10280533;28;20053;-59
2023/10/22 17:56:10;;;;;;;2.95;1.08;;;;;;;13.38;59.29;99502.38;10294030;28;20078;-60
2023/10/22 18:01:12;;;;;;;2.83;1.30;;;;;;;13.40;59.45;99510.97;10295528;28;20069;-59
2023/10/22 18:06:15;;;;;;;8.80;3.40;;;;;;;13.45;59.29;99516.75;10294606;28;20482;-59
2023/10/22 18:11:21;;;;;;;14.57;5.32;;;;;;;13.43;59.30;99526.53;10274669;28;20180;-60
2023/10/22 18:16:24;;;;;;;6.30;2.13;;;;;;;13.46;59.43;99534.16;10290032;28;20099;-60
2023/10/22 18:21:26;;;;;;;2.58;1.25;;;;;;;13.51;59.41;99526.78;10281372;28;20486;-60
2023/10/22 18:26:29;;;;;;;2.00;1.00;;;;;;;13.56;59.44;99535.97;10294272;28;20052;-60
2023/10/22 18:31:31;;;;;;;1.35;0.90;;;;;;;13.63;59.10;99529.28;10280352;28;20304;-60
2023/10/22 18:36:33;;;;;;;1.83;0.80;;;;;;;13.64;59.28;99536.19;10297385;28;20800;-60
2023/10/22 18:41:35;;;;;;;0.80;0.65;;;;;;;13.61;59.39;99536.47;10297335;28;20048;-59
2023/10/22 18:46:38;;;;;;;2.08;0.63;;;;;;;13.71;58.95;99536.56;10292975;28;20133;-60
2023/10/22 18:51:40;;;;;;;1.77;0.98;;;;;;;13.72;59.30;99538.22;10292544;28;20046;-60
2023/10/22 18:56:42;;;;;;;1.75;1.10;;;;;;;13.71;59.31;99544.44;10293165;28;20042;-60
2023/10/22 19:01:46;;;;;;;4.72;1.75;;;;;;;13.70;59.28;99545.38;10271911;28;20052;-60
2023/10/22 19:06:48;;;;;;;4.22;1.70;;;;;;;13.77;59.04;99547.44;10276714;28;20546;-59
2023/10/22 19:11:50;;;;;;;2.63;1.50;;;;;;;13.80;59.60;99554.22;10279805;28;20421;-59
2023/10/22 19:16:52;;;;;;;2.17;1.33;;;;;;;13.74;59.86;99562.59;10279712;28;20051;-60
2023/10/22 19:21:55;;;;;;;3.05;1.00;;;;;;;13.61;60.14;99575.03;10298433;28;20047;-60
2023/10/22 19:26:59;;;;;;;1.70;1.10;;;;;;;13.56;60.74;99569.28;10292627;28;20132;-60
2023/10/22 19:32:02;;;;;;;0.88;0.80;;;;;;;13.47;60.84;99581.38;10296341;28;20398;-60
2023/10/22 19:37:05;;;;;;;0.80;0.80;;;;;;;13.45;61.23;99585.91;10294609;28;20042;-60
2023/10/22 19:42:08;;;;;;;1.05;0.80;;;;;;;13.42;60.92;99588.75;10276381;28;21147;-59
2023/10/22 19:47:10;;;;;;;2.70;0.80;;;;;;;13.38;61.24;99595.16;10293223;28;20058;-59
2023/10/22 19:52:12;;;;;;;1.00;0.90;;;;;;;13.37;61.68;99601.34;10294718;28;20050;-60
2023/10/22 19:57:30;;;;;;;1.58;1.05;;;;;;;13.39;61.83;99591.56;10296902;28;20054;-60
2023/10/22 20:02:32;;;;;;;0.85;0.73;;;;;;;13.35;61.92;99597.19;10276653;28;20133;-59
2023/10/22 20:07:34;;;;;;;1.73;0.93;;;;;;;13.21;62.04;99605.28;10294117;28;20084;-60
2023/10/22 20:12:36;;;;;;;0.98;0.82;;;;;;;13.08;62.04;99596.63;10286669;28;20506;-59
2023/10/22 20:17:44;;;;;;;0.75;0.70;;;;;;;13.01;62.63;99606.75;10294015;28;20055;-59
2023/10/22 20:22:46;;;;;;;2.17;1.33;;;;;;;13.00;62.95;99609.50;10293101;28;20495;-59
2023/10/22 20:27:47;;;;;;;4.18;1.40;;;;;;;13.03;62.86;99617.16;10291610;28;20407;-59
2023/10/22 20:32:49;;;;;;;2.00;1.38;;;;;;;13.02;63.06;99604.97;10293965;28;20576;-59
2023/10/22 20:37:53;;;;;;;1.30;1.00;;;;;;;13.02;63.42;99610.22;10291411;28;20042;-60
2023/10/22 20:42:55;;;;;;;2.13;1.17;;;;;;;13.02;63.19;99610.22;10260152;28;20810;-59
2023/10/22 20:47:57;;;;;;;1.85;1.13;;;;;;;12.96;63.37;99617.59;10291758;28;20453;-59
2023/10/22 20:52:59;;;;;;;2.13;0.77;;;;;;;12.96;63.23;99617.59;10288617;28;20100;-59
2023/10/22 20:58:01;;;;;;;2.72;1.30;;;;;;;12.92;63.49;99629.28;10294407;28;20227;-60
2023/10/22 21:03:03;;;;;;;2.15;1.20;;;;;;;12.78;63.96;99628.66;10290258;28;20038;-59
2023/10/22 21:08:05;;;;;;;1.65;1.20;;;;;;;12.81;63.76;99628.41;10291342;28;20046;-59
2023/10/22 21:13:07;;;;;;;3.55;1.33;;;;;;;12.77;63.69;99632.19;10295926;28;20047;-59
2023/10/22 21:18:09;;;;;;;4.82;1.77;;;;;;;12.68;63.72;99628.47;10294013;28;20058;-59
2023/10/22 21:23:12;;;;;;;3.38;1.80;;;;;;;12.53;64.04;99629.59;10294960;28;20058;-59
2023/10/22 21:28:16;;;;;;;5.25;2.00;;;;;;;12.55;64.15;99629.47;10293559;28;20039;-59
2023/10/22 21:33:22;;;;;;;2.35;1.40;;;;;;;12.60;64.02;99628.19;10295205;28;20050;-59
2023/10/22 21:38:25;;;;;;;3.20;1.50;;;;;;;12.64;64.17;99627.00;10274656;28;20050;-59
2023/10/22 21:43:27;;;;;;;4.95;1.30;;;;;;;12.69;64.10;99626.69;10294542;28;20100;-59
2023/10/22 21:48:29;;;;;;;3.13;1.55;;;;;;;12.72;64.22;99621.22;10291002;28;20050;-59
2023/10/22 21:53:32;;;;;;;2.53;1.50;;;;;;;12.68;64.30;99633.69;10273012;28;20096;-59
2023/10/22 21:58:34;;;;;;;6.45;1.85;;;;;;;12.52;64.51;99632.31;10294740;28;20545;-59
2023/10/22 22:03:36;;;;;;;2.42;1.38;;;;;;;12.46;64.68;99628.34;10292657;28;20050;-59
2023/10/22 22:08:38;;;;;;;3.97;1.30;;;;;;;12.42;64.65;99629.50;10291068;28;20156;-59
2023/10/22 22:13:40;;;;;;;4.15;1.25;;;;;;;12.29;64.87;99626.13;10291914;28;20039;-59
2023/10/22 22:18:42;;;;;;;4.07;1.65;;;;;;;12.16;65.20;99620.03;10292851;28;20050;-59
2023/10/22 22:23:44;;;;;;;3.65;1.52;;;;;;;12.01;65.12;99631.56;10299177;28;20054;-59
2023/10/22 22:28:46;;;;;;;1.88;1.10;;;;;;;11.92;65.21;99627.84;10297883;28;20051;-59
2023/10/22 22:33:48;;;;;;;2.25;1.40;;;;;;;11.93;65.47;99629.50;10298142;28;20057;-59
2023/10/22 22:38:50;;;;;;;1.33;1.00;;;;;;;11.97;65.38;99635.34;10299033;28;20057;-59
2023/10/22 22:43:52;;;;;;;2.60;1.20;;;;;;;11.93;65.24;99628.66;10297291;28;20450;-59
2023/10/22 22:48:57;;;;;;;2.75;1.05;;;;;;;11.72;65.42;99635.41;10297623;28;20323;-59
2023/10/22 22:53:59;;;;;;;1.33;0.90;;;;;;;11.40;65.90;99637.59;10294870;28;20057;-59
2023/10/22 22:59:01;;;;;;;4.68;1.77;;;;;;;11.26;66.20;99643.75;10297576;28;20410;-59
2023/10/22 23:04:03;;;;;;;1.45;1.10;;;;;;;11.31;66.38;99651.31;10296781;28;20047;-59
2023/10/22 23:09:05;;;;;;;1.38;1.00;;;;;;;11.29;66.40;99650.59;10296718;28;20046;-59
2023/10/22 23:14:07;;;;;;;4.60;2.15;;;;;;;11.27;66.14;99655.09;10280284;28;20047;-59
2023/10/22 23:19:09;;;;;;;2.33;1.40;;;;;;;11.25;66.02;99657.78;10301050;28;20058;-59
2023/10/22 23:24:11;;;;;;;2.72;1.30;;;;;;;11.09;66.18;99657.13;10298747;28;20045;-59
2023/10/22 23:29:13;;;;;;;2.53;1.33;;;;;;;11.01;66.42;99658.56;10279210;28;20047;-59